createdAt,value
2022-11-03T00:01:34.108Z,8.50
2022-11-03T00:04:01.155Z,5.20
2022-11-03T00:06:30.948Z,6.50
2022-11-03T00:08:59.309Z,8.70
2022-11-03T00:11:26.605Z,7.70
2022-11-03T00:13:53.999Z,5.70
2022-11-03T00:16:21.042Z,5.40
2022-11-03T00:18:47.884Z,7.40
2022-11-03T00:21:14.726Z,4.80
2022-11-03T00:23:43.523Z,5.40
2022-11-03T00:26:26.977Z,4.10
2022-11-03T00:28:56.115Z,5.00
2022-11-03T00:31:28.252Z,6.80
2022-11-03T00:33:55.746Z,5.60
2022-11-03T00:36:25.005Z,6.80
2022-11-03T00:38:53.017Z,8.50
2022-11-03T00:41:20.944Z,7.60
2022-11-03T00:43:48.679Z,5.10
2022-11-03T00:46:16.195Z,6.60
2022-11-03T00:48:43.324Z,7.20
2022-11-03T00:51:22.285Z,5.00
2022-11-03T00:53:54.534Z,5.00
2022-11-03T00:56:27.312Z,7.40
2022-11-03T00:58:55.709Z,6.50
2022-11-03T01:01:37.062Z,5.80
2022-11-03T01:04:25.857Z,6.50
2022-11-03T01:06:55.364Z,5.80
2022-11-03T01:09:36.029Z,5.10
2022-11-03T01:12:12.133Z,4.70
2022-11-03T01:14:45.085Z,3.50
2022-11-03T01:17:20.637Z,3.50
2022-11-03T01:19:47.942Z,4.00
2022-11-03T01:22:16.051Z,9.70
2022-11-03T01:24:43.750Z,3.90
2022-11-03T01:27:13.252Z,4.50
2022-11-03T01:29:40.665Z,5.20
2022-11-03T01:32:08.411Z,4.60
2022-11-03T01:34:35.919Z,5.80
2022-11-03T01:37:03.439Z,6.00
2022-11-03T01:39:30.500Z,4.30
2022-11-03T01:41:57.847Z,6.40
2022-11-03T01:44:42.940Z,7.50
2022-11-03T01:47:41.914Z,3.60
2022-11-03T01:50:14.211Z,5.00
2022-11-03T01:52:51.853Z,5.80
2022-11-03T01:55:25.135Z,4.40
2022-11-03T01:58:15.199Z,3.90
2022-11-03T02:03:11.754Z,3.10
2022-11-03T02:05:41.902Z,5.00
2022-11-03T02:08:13.763Z,5.80
2022-11-03T02:10:40.872Z,4.60
2022-11-03T02:13:19.273Z,3.10
2022-11-03T02:15:53.120Z,4.50
2022-11-03T02:18:25.460Z,7.10
2022-11-03T02:21:14.146Z,4.80
2022-11-03T02:23:45.120Z,4.00
2022-11-03T02:26:14.945Z,3.80
2022-11-03T02:28:42.076Z,2.70
2022-11-03T02:31:33.550Z,3.80
2022-11-03T02:34:08.283Z,6.70
2022-11-03T02:36:42.830Z,4.00
2022-11-03T02:39:20.546Z,2.90
2022-11-03T02:41:50.027Z,4.30
2022-11-03T02:44:19.028Z,3.90
2022-11-03T02:46:54.101Z,4.80
2022-11-03T02:49:21.040Z,6.50
2022-11-03T02:51:47.934Z,4.50
2022-11-03T02:54:25.672Z,3.30
2022-11-03T02:56:59.127Z,5.10
2022-11-03T02:59:41.047Z,6.50
2022-11-03T03:02:13.113Z,4.20
2022-11-03T03:04:46.459Z,6.30
2022-11-03T03:07:21.792Z,6.20
2022-11-03T03:10:12.063Z,5.20
2022-11-03T03:12:42.760Z,5.90
2022-11-03T03:15:09.799Z,3.90
2022-11-03T03:17:45.455Z,6.50
2022-11-03T03:20:33.940Z,6.70
2022-11-03T03:23:13.127Z,5.40
2022-11-03T03:25:50.089Z,8.60
2022-11-03T03:28:29.247Z,6.70
2022-11-03T03:30:58.978Z,7.90
2022-11-03T03:35:58.468Z,5.00
2022-11-03T03:38:36.599Z,5.00
2022-11-03T03:41:10.384Z,3.20
2022-11-03T03:43:39.034Z,6.10
2022-11-03T03:46:11.665Z,5.20
2022-11-03T03:48:39.186Z,5.50
2022-11-03T03:51:06.940Z,5.30
2022-11-03T03:53:33.813Z,5.10
2022-11-03T03:56:01.140Z,6.40
2022-11-03T03:58:28.283Z,4.00
2022-11-03T04:00:55.549Z,7.00
2022-11-03T04:03:24.664Z,5.00
2022-11-03T04:05:53.609Z,6.10
2022-11-03T04:08:20.569Z,4.70
2022-11-03T04:11:06.241Z,5.50
2022-11-03T04:13:52.074Z,5.50
2022-11-03T04:16:37.373Z,5.20
2022-11-03T04:19:22.735Z,6.10
2022-11-03T04:22:08.206Z,5.80
2022-11-03T04:24:35.183Z,5.90
2022-11-03T04:27:16.178Z,8.20
2022-11-03T04:29:43.135Z,5.60
2022-11-03T04:32:16.065Z,4.50
2022-11-03T04:34:45.763Z,8.70
2022-11-03T04:37:13.725Z,8.30
2022-11-03T04:39:41.360Z,12.40
2022-11-03T04:42:21.729Z,12.40
2022-11-03T04:44:49.427Z,12.70
2022-11-03T04:47:17.685Z,11.90
2022-11-03T04:49:47.118Z,8.10
2022-11-03T04:52:20.761Z,6.20
2022-11-03T04:54:50.242Z,5.90
2022-11-03T04:57:17.487Z,4.80
2022-11-03T04:59:47.238Z,5.20
2022-11-03T05:02:18.788Z,6.00
2022-11-03T05:04:45.811Z,8.20
2022-11-03T05:07:20.224Z,4.80
2022-11-03T05:09:47.056Z,6.00
2022-11-03T05:12:14.731Z,6.00
2022-11-03T05:14:41.675Z,5.50
2022-11-03T05:17:28.316Z,7.30
2022-11-03T05:19:59.314Z,4.90
2022-11-03T05:22:33.540Z,5.60
2022-11-03T05:25:10.195Z,6.80
2022-11-03T05:27:37.085Z,5.50
2022-11-03T05:30:04.376Z,7.70
2022-11-03T05:32:33.786Z,11.40
2022-11-03T05:35:00.919Z,10.00
2022-11-03T05:37:31.027Z,12.30
2022-11-03T05:42:37.365Z,12.00
2022-11-03T05:45:15.419Z,13.70
2022-11-03T05:47:42.550Z,11.10
2022-11-03T05:50:27.703Z,8.20
2022-11-03T05:53:04.012Z,10.80
2022-11-03T05:55:34.229Z,11.30
2022-11-03T05:58:11.993Z,12.50
2022-11-03T06:00:47.069Z,12.90
2022-11-03T06:03:27.754Z,13.40
2022-11-03T06:05:55.536Z,16.50
2022-11-03T06:08:27.093Z,12.70
2022-11-03T06:10:58.105Z,11.90
2022-11-03T06:13:37.194Z,11.70
2022-11-03T06:16:06.186Z,11.90
2022-11-03T06:18:36.023Z,7.90
2022-11-03T06:21:08.797Z,8.10
2022-11-03T06:23:36.989Z,6.80
2022-11-03T06:26:17.208Z,7.60
2022-11-03T06:28:45.026Z,9.20
2022-11-03T06:31:23.869Z,8.90
2022-11-03T06:33:52.324Z,12.10
2022-11-03T06:36:22.729Z,6.80
2022-11-03T06:38:56.304Z,7.00
2022-11-03T06:41:26.917Z,6.40
2022-11-03T06:43:54.081Z,6.10
2022-11-03T06:46:23.535Z,7.80
2022-11-03T06:48:57.303Z,7.00
2022-11-03T06:51:27.220Z,5.90
2022-11-03T06:56:24.719Z,7.10
2022-11-03T06:58:54.062Z,7.10
2022-11-03T07:01:25.473Z,7.20
2022-11-03T07:04:00.932Z,6.90
2022-11-03T07:06:36.002Z,5.60
2022-11-03T07:09:06.182Z,5.80
2022-11-03T07:11:44.103Z,6.40
2022-11-03T07:14:32.297Z,8.70
2022-11-03T07:17:02.923Z,4.70
2022-11-03T07:19:35.687Z,4.90
2022-11-03T07:22:14.988Z,8.30
2022-11-03T07:24:46.370Z,7.30
2022-11-03T07:27:38.130Z,6.40
2022-11-03T07:30:08.056Z,5.00
2022-11-03T07:32:35.240Z,6.40
2022-11-03T07:35:25.334Z,3.90
2022-11-03T07:37:53.456Z,4.80
2022-11-03T07:40:25.796Z,8.10
2022-11-03T07:42:58.137Z,7.10
2022-11-03T07:45:35.120Z,8.90
2022-11-03T07:48:19.287Z,8.50
2022-11-03T07:50:47.579Z,4.20
2022-11-03T07:53:39.828Z,6.90
2022-11-03T07:56:14.401Z,6.40
2022-11-03T07:58:42.545Z,5.60
2022-11-03T08:01:28.363Z,5.70
2022-11-03T08:04:00.236Z,5.70
2022-11-03T08:06:27.206Z,6.40
2022-11-03T08:08:54.181Z,6.10
2022-11-03T08:11:26.108Z,4.90
2022-11-03T08:13:57.052Z,5.10
2022-11-03T08:16:23.984Z,6.50
2022-11-03T08:18:50.840Z,6.30
2022-11-03T08:21:17.802Z,5.90
2022-11-03T08:23:47.545Z,6.60
2022-11-03T08:26:15.501Z,8.30
2022-11-03T08:28:42.417Z,7.10
2022-11-03T08:31:13.015Z,9.80
2022-11-03T08:33:40.582Z,7.90
2022-11-03T08:36:08.442Z,6.00
2022-11-03T08:38:36.725Z,3.90
2022-11-03T08:41:03.920Z,5.90
2022-11-03T08:43:31.487Z,4.70
2022-11-03T08:46:05.575Z,7.70
2022-11-03T08:48:39.917Z,6.70
2022-11-03T08:51:09.673Z,3.50
2022-11-03T08:53:37.950Z,6.60
2022-11-03T08:56:08.938Z,7.30
2022-11-03T08:58:39.465Z,8.80
2022-11-03T09:01:07.494Z,4.80
2022-11-03T09:03:34.461Z,4.30
2022-11-03T09:06:01.431Z,8.70
2022-11-03T09:11:15.518Z,7.60
2022-11-03T09:13:42.363Z,4.30
2022-11-03T09:16:09.228Z,6.40
2022-11-03T09:18:36.843Z,4.90
2022-11-03T09:21:04.008Z,5.90
2022-11-03T09:23:30.834Z,6.10
2022-11-03T09:25:57.705Z,6.30
2022-11-03T09:28:24.615Z,2.70
2022-11-03T09:30:51.590Z,6.70
2022-11-03T09:33:19.049Z,9.00
2022-11-03T09:35:45.913Z,7.20
2022-11-03T09:38:12.870Z,8.20
2022-11-03T09:40:41.018Z,10.70
2022-11-03T09:43:08.773Z,7.00
2022-11-03T09:45:35.822Z,7.10
2022-11-03T09:48:02.864Z,9.50
2022-11-03T09:50:31.460Z,7.40
2022-11-03T09:52:58.690Z,8.50
2022-11-03T09:55:27.162Z,8.00
2022-11-03T09:58:01.635Z,6.10
2022-11-03T10:00:29.004Z,7.70
2022-11-03T10:02:56.217Z,11.30
2022-11-03T10:05:25.848Z,3.90
2022-11-03T10:07:58.597Z,8.10
2022-11-03T10:10:25.979Z,6.90
2022-11-03T10:12:53.293Z,7.50
2022-11-03T10:15:23.005Z,5.80
2022-11-03T10:17:51.018Z,8.40
2022-11-03T10:20:20.587Z,5.10
2022-11-03T10:22:51.986Z,6.90
2022-11-03T10:25:40.118Z,6.20
2022-11-03T10:28:19.106Z,4.40
2022-11-03T10:31:14.466Z,5.50
2022-11-03T10:33:52.546Z,6.40
2022-11-03T10:36:19.651Z,7.90
2022-11-03T10:38:47.378Z,7.20
2022-11-03T10:41:22.836Z,4.60
2022-11-03T10:44:00.194Z,5.90
2022-11-03T10:49:17.873Z,3.90
2022-11-03T10:54:16.611Z,5.70
2022-11-03T10:56:45.382Z,3.00
2022-11-03T10:59:19.848Z,7.80
2022-11-03T11:01:48.078Z,5.20
2022-11-03T11:04:20.222Z,6.20
2022-11-03T11:06:47.582Z,5.00
2022-11-03T11:09:25.007Z,6.90
2022-11-03T11:12:36.863Z,7.70
2022-11-03T11:15:35.837Z,5.20
2022-11-03T11:18:02.958Z,6.20
2022-11-03T11:20:33.095Z,3.20
2022-11-03T11:23:38.459Z,4.40
2022-11-03T11:26:33.568Z,6.00
2022-11-03T11:29:09.654Z,6.20
2022-11-03T11:31:46.576Z,5.70
2022-11-03T11:34:16.793Z,7.70
2022-11-03T11:36:46.706Z,2.90
2022-11-03T11:42:05.385Z,9.00
2022-11-03T11:44:52.242Z,7.40
2022-11-03T11:47:31.078Z,3.40
2022-11-03T11:50:06.938Z,5.80
2022-11-03T11:52:49.902Z,6.20
2022-11-03T11:55:35.304Z,3.20
2022-11-03T11:58:05.581Z,3.40
2022-11-03T12:00:34.567Z,4.30
2022-11-03T12:03:05.027Z,3.70
2022-11-03T12:05:35.302Z,4.10
2022-11-03T12:10:31.088Z,4.00
2022-11-03T12:12:59.513Z,9.10
2022-11-03T12:15:55.460Z,4.70
2022-11-03T12:18:40.710Z,3.30
2022-11-03T12:21:14.236Z,5.00
2022-11-03T12:23:47.183Z,3.80
2022-11-03T12:26:17.180Z,4.60
2022-11-03T12:28:44.989Z,3.70
2022-11-03T12:31:12.209Z,8.20
2022-11-03T12:33:39.228Z,7.50
2022-11-03T12:36:06.606Z,6.70
2022-11-03T12:38:33.715Z,5.60
2022-11-03T12:41:19.116Z,6.00
2022-11-03T12:43:49.527Z,4.50
2022-11-03T12:46:18.201Z,5.10
2022-11-03T12:48:47.074Z,6.80
2022-11-03T12:51:16.178Z,8.30
2022-11-03T12:53:43.266Z,3.50
2022-11-03T12:56:11.553Z,7.40
2022-11-03T12:58:38.703Z,4.80
2022-11-03T13:01:06.511Z,4.00
2022-11-03T13:03:34.966Z,3.90
2022-11-03T13:06:04.181Z,5.20
2022-11-03T13:08:31.712Z,5.90
2022-11-03T13:10:59.057Z,4.70
2022-11-03T13:13:26.513Z,4.40
2022-11-03T13:15:53.756Z,5.80
2022-11-03T13:18:22.022Z,6.90
2022-11-03T13:20:49.134Z,4.30
2022-11-03T13:23:18.791Z,4.80
2022-11-03T13:25:49.117Z,6.50
2022-11-03T13:28:16.025Z,4.80
2022-11-03T13:30:43.099Z,5.70
2022-11-03T13:33:10.492Z,6.10
2022-11-03T13:35:37.696Z,6.60
2022-11-03T13:38:04.631Z,6.00
2022-11-03T13:43:18.901Z,8.20
2022-11-03T13:45:45.872Z,8.70
2022-11-03T13:51:00.195Z,13.10
2022-11-03T13:56:20.863Z,14.80
2022-11-03T14:01:37.639Z,6.80
2022-11-03T14:06:52.197Z,7.80
2022-11-03T14:09:19.072Z,7.10
2022-11-03T14:12:04.338Z,9.40
2022-11-03T14:14:31.419Z,8.30
2022-11-03T14:16:58.412Z,9.00
2022-11-03T14:19:35.336Z,7.80
2022-11-03T14:22:05.150Z,8.90
2022-11-03T14:24:32.113Z,6.10
2022-11-03T14:26:59.053Z,7.70
2022-11-03T14:29:26.604Z,4.70
2022-11-03T14:31:54.587Z,7.20
2022-11-03T14:34:21.563Z,7.40
2022-11-03T14:36:48.606Z,9.20
2022-11-03T14:39:15.681Z,10.30
2022-11-03T14:42:01.419Z,10.60
2022-11-03T14:44:32.154Z,10.00
2022-11-03T14:47:03.398Z,11.90
2022-11-03T14:49:31.766Z,14.80
2022-11-03T14:52:01.080Z,13.40
2022-11-03T14:54:30.025Z,14.50
2022-11-03T14:56:57.559Z,14.40
2022-11-03T14:59:25.424Z,12.80
2022-11-03T15:01:53.128Z,11.90
2022-11-03T15:04:21.599Z,29.20
2022-11-03T15:06:48.924Z,27.50
2022-11-03T15:09:16.242Z,26.90
2022-11-03T15:11:44.113Z,24.20
2022-11-03T15:14:12.077Z,20.50
2022-11-03T15:16:39.529Z,17.30
2022-11-03T15:19:07.481Z,15.60
2022-11-03T15:21:34.970Z,15.00
2022-11-03T15:26:49.992Z,16.30
2022-11-03T15:29:17.013Z,14.70
2022-11-03T15:31:47.823Z,15.70
2022-11-03T15:34:15.935Z,14.50
2022-11-03T15:36:43.559Z,15.80
2022-11-03T15:39:10.578Z,23.60
2022-11-03T15:41:37.442Z,108.60
2022-11-03T15:44:04.355Z,269.90
2022-11-03T15:46:31.328Z,258.10
2022-11-03T15:48:58.169Z,200.10
2022-11-03T15:51:25.134Z,94.30
2022-11-03T15:53:57.880Z,55.00
2022-11-03T15:56:29.219Z,43.10
2022-11-03T15:58:56.498Z,29.50
2022-11-03T16:01:23.609Z,27.10
2022-11-03T16:03:51.250Z,18.90
2022-11-03T16:06:18.421Z,16.80
2022-11-03T16:08:45.260Z,22.70
2022-11-03T16:11:12.216Z,33.50
2022-11-03T16:13:39.583Z,31.40
2022-11-03T16:16:06.834Z,28.50
2022-11-03T16:18:34.312Z,22.00
2022-11-03T16:21:01.271Z,24.90
2022-11-03T16:23:28.117Z,24.80
2022-11-03T16:25:55.036Z,31.80
2022-11-03T16:28:22.746Z,30.90
2022-11-03T16:30:54.094Z,29.00
2022-11-03T16:33:22.270Z,22.90
2022-11-03T16:35:49.332Z,22.10
2022-11-03T16:38:16.537Z,21.80
2022-11-03T16:40:44.029Z,25.10
2022-11-03T16:43:11.698Z,25.10
2022-11-03T16:45:38.729Z,22.40
2022-11-03T16:48:06.755Z,24.20
2022-11-03T16:50:34.632Z,21.20
2022-11-03T16:53:02.375Z,23.60
2022-11-03T16:55:29.473Z,22.20
2022-11-03T16:57:56.381Z,18.40
2022-11-03T17:00:23.683Z,23.80
2022-11-03T17:02:50.600Z,25.30
2022-11-03T17:05:19.697Z,20.60
2022-11-03T17:07:52.826Z,23.70
2022-11-03T17:10:21.228Z,22.70
2022-11-03T17:12:48.813Z,21.50
2022-11-03T17:15:16.692Z,20.40
2022-11-03T17:17:43.630Z,21.30
2022-11-03T17:20:11.504Z,22.40
2022-11-03T17:22:38.862Z,25.40
2022-11-03T17:25:08.917Z,29.50
2022-11-03T17:27:52.107Z,45.10
2022-11-03T17:30:23.643Z,65.40
2022-11-03T17:32:53.246Z,83.20
2022-11-03T17:35:21.824Z,81.60
2022-11-03T17:37:49.726Z,75.70
2022-11-03T17:40:22.591Z,67.20
2022-11-03T17:42:50.424Z,84.00
2022-11-03T17:45:20.040Z,76.50
2022-11-03T17:47:47.026Z,39.50
2022-11-03T17:50:16.265Z,24.20
2022-11-03T17:52:47.908Z,19.80
2022-11-03T17:55:17.796Z,17.20
2022-11-03T17:57:45.132Z,19.30
2022-11-03T18:00:20.072Z,17.80
2022-11-03T18:02:49.884Z,18.10
2022-11-03T18:05:29.475Z,26.50
2022-11-03T18:08:01.924Z,22.10
2022-11-03T18:10:32.628Z,28.00
2022-11-03T18:13:16.019Z,27.70
2022-11-03T18:15:53.441Z,35.70
2022-11-03T18:18:32.465Z,20.50
2022-11-03T18:20:59.871Z,23.70
2022-11-03T18:23:32.372Z,21.70
2022-11-03T18:26:12.527Z,19.20
2022-11-03T18:28:39.465Z,18.00
2022-11-03T18:31:23.564Z,17.10
2022-11-03T18:33:51.700Z,13.40
2022-11-03T18:36:22.458Z,17.80
2022-11-03T18:38:52.143Z,13.60
2022-11-03T18:44:20.263Z,14.80
2022-11-03T18:46:48.547Z,13.60
2022-11-03T18:49:15.705Z,16.40
2022-11-03T18:51:59.353Z,12.50
2022-11-03T18:54:31.643Z,12.60
2022-11-03T18:56:59.344Z,13.10
2022-11-03T18:59:36.713Z,15.60
2022-11-03T19:02:15.041Z,16.40
2022-11-03T19:04:42.360Z,12.40
2022-11-03T19:07:13.465Z,15.70
2022-11-03T19:09:40.842Z,18.20
2022-11-03T19:12:11.428Z,18.80
2022-11-03T19:14:40.615Z,14.30
2022-11-03T19:17:24.052Z,18.30
2022-11-03T19:19:52.574Z,23.60
2022-11-03T19:22:21.424Z,14.50
2022-11-03T19:24:48.468Z,15.80
2022-11-03T19:27:21.845Z,19.40
2022-11-03T19:29:49.189Z,17.80
2022-11-03T19:32:22.119Z,16.40
2022-11-03T19:35:03.634Z,14.60
2022-11-03T19:37:35.427Z,17.50
2022-11-03T19:40:08.115Z,15.70
2022-11-03T19:42:38.182Z,10.70
2022-11-03T19:47:47.890Z,12.50
2022-11-03T19:50:23.882Z,12.40
2022-11-03T19:52:56.010Z,11.60
2022-11-03T19:55:29.743Z,10.50
2022-11-03T19:58:21.248Z,14.20
2022-11-03T20:00:49.116Z,15.40
2022-11-03T20:03:16.285Z,19.40
2022-11-03T20:05:49.367Z,23.30
2022-11-03T20:08:20.120Z,22.40
2022-11-03T20:10:47.695Z,23.40
2022-11-03T20:13:18.708Z,21.20
2022-11-03T20:15:46.247Z,16.30
2022-11-03T20:18:13.981Z,12.70
2022-11-03T20:20:43.151Z,11.70
2022-11-03T20:23:27.429Z,15.70
2022-11-03T20:25:54.898Z,12.20
2022-11-03T20:28:28.184Z,9.50
2022-11-03T20:30:56.640Z,13.50
2022-11-03T20:33:24.697Z,13.70
2022-11-03T20:35:53.720Z,12.70
2022-11-03T20:38:22.409Z,12.10
2022-11-03T20:40:55.182Z,11.20
2022-11-03T20:43:31.299Z,13.00
2022-11-03T20:45:59.024Z,12.90
2022-11-03T20:48:26.325Z,12.20
2022-11-03T20:50:53.766Z,13.40
2022-11-03T20:53:24.961Z,14.80
2022-11-03T20:55:53.985Z,14.20
2022-11-03T21:01:46.241Z,16.40
2022-11-03T21:04:15.910Z,18.50
2022-11-03T21:06:43.711Z,14.10
2022-11-03T21:09:17.313Z,15.50
2022-11-03T21:11:45.438Z,12.20
2022-11-03T21:14:33.403Z,16.80
2022-11-03T21:37:59.652Z,17.20
2022-11-03T21:46:26.665Z,37.00
2022-11-03T21:49:45.000Z,18.40
2022-11-03T21:52:23.116Z,14.00
2022-11-03T21:54:56.046Z,17.20
2022-11-03T21:57:56.427Z,13.30
2022-11-03T22:00:40.092Z,13.00
2022-11-03T22:03:16.318Z,12.20
2022-11-03T22:20:51.087Z,14.60
2022-11-03T22:23:46.526Z,15.90
2022-11-03T22:26:40.134Z,13.80
2022-11-03T22:29:25.691Z,14.30
2022-11-03T22:31:52.917Z,15.80
2022-11-03T22:34:38.578Z,12.00
2022-11-03T22:37:05.560Z,15.20
2022-11-03T22:39:50.968Z,12.80
2022-11-03T22:42:36.547Z,15.80
2022-11-03T22:45:22.823Z,15.70
2022-11-03T22:47:56.409Z,17.60
2022-11-03T22:50:23.424Z,36.40
2022-11-03T22:52:50.387Z,43.80
2022-11-03T22:55:17.279Z,59.70
2022-11-03T22:57:44.216Z,36.70
2022-11-03T23:00:12.946Z,28.70
2022-11-03T23:02:39.950Z,32.50
2022-11-03T23:05:08.383Z,25.70
2022-11-03T23:07:41.944Z,20.10
2022-11-03T23:10:09.683Z,18.30
2022-11-03T23:12:41.035Z,17.50
2022-11-03T23:15:27.199Z,14.70
2022-11-03T23:18:20.138Z,15.50
2022-11-03T23:21:06.620Z,14.00
2022-11-03T23:23:53.630Z,16.00
2022-11-03T23:26:26.976Z,14.40
2022-11-03T23:28:54.285Z,15.80
2022-11-03T23:31:21.697Z,15.30
2022-11-03T23:33:48.892Z,15.60
2022-11-03T23:36:17.220Z,12.30
2022-11-03T23:38:44.564Z,13.50
2022-11-03T23:41:16.637Z,14.90
2022-11-03T23:43:44.419Z,13.30
2022-11-03T23:46:32.361Z,12.00
2022-11-03T23:48:59.346Z,15.40
2022-11-03T23:51:28.631Z,15.80
2022-11-03T23:53:57.143Z,14.30
2022-11-03T23:56:45.520Z,14.00
2022-11-03T23:59:15.159Z,17.50
